createdAt,value
2023-10-17T00:02:36.724Z,46.50
2023-10-17T00:07:46.478Z,33.25
2023-10-17T00:12:54.933Z,42.50
2023-10-17T00:18:06.953Z,44.00
2023-10-17T00:23:17.560Z,44.00
2023-10-17T00:28:26.423Z,38.50
2023-10-17T00:33:31.504Z,38.50
2023-10-17T00:38:38.009Z,35.00
2023-10-17T00:43:43.262Z,41.00
2023-10-17T00:48:50.561Z,45.50
2023-10-17T00:53:55.341Z,44.75
2023-10-17T00:59:00.717Z,47.25
2023-10-17T01:04:05.645Z,41.50
2023-10-17T01:09:20.546Z,41.25
2023-10-17T01:14:27.630Z,41.75
2023-10-17T01:19:35.360Z,50.25
2023-10-17T01:24:43.592Z,46.00
2023-10-17T01:29:47.899Z,47.25
2023-10-17T01:34:52.511Z,53.25
2023-10-17T01:39:57.115Z,50.75
2023-10-17T01:45:01.687Z,50.75
2023-10-17T01:50:07.497Z,49.50
2023-10-17T01:55:18.430Z,51.50
2023-10-17T02:00:40.095Z,45.75
2023-10-17T02:05:45.241Z,45.50
2023-10-17T02:10:50.650Z,39.25
2023-10-17T02:15:55.312Z,42.75
2023-10-17T02:21:08.807Z,39.75
2023-10-17T02:26:13.730Z,44.75
2023-10-17T02:31:19.484Z,41.50
2023-10-17T02:36:24.974Z,39.25
2023-10-17T02:41:33.040Z,41.50
2023-10-17T02:46:38.954Z,38.25
2023-10-17T02:51:46.429Z,44.50
2023-10-17T02:56:54.278Z,39.75
2023-10-17T03:02:00.345Z,46.25
2023-10-17T03:07:10.454Z,47.00
2023-10-17T03:12:25.649Z,44.75
2023-10-17T03:17:31.997Z,43.25
2023-10-17T03:22:36.438Z,47.25
2023-10-17T03:27:50.637Z,45.00
2023-10-17T03:33:03.732Z,48.00
2023-10-17T03:38:11.291Z,46.50
2023-10-17T03:43:17.815Z,46.25
2023-10-17T03:48:25.610Z,41.75
2023-10-17T03:53:33.460Z,48.00
2023-10-17T03:58:51.897Z,47.25
2023-10-17T04:03:59.885Z,45.75
2023-10-17T04:09:24.030Z,43.75
2023-10-17T04:14:52.796Z,40.75
2023-10-17T04:20:01.655Z,39.00
2023-10-17T04:25:22.485Z,40.00
2023-10-17T04:30:37.771Z,42.75
2023-10-17T04:35:49.416Z,46.75
2023-10-17T04:41:24.005Z,42.00
2023-10-17T04:46:41.393Z,46.75
2023-10-17T04:51:48.585Z,42.00
2023-10-17T04:57:11.844Z,49.00
2023-10-17T05:02:20.198Z,44.75
2023-10-17T05:07:44.117Z,40.50
2023-10-17T05:13:10.461Z,42.50
2023-10-17T05:18:33.788Z,40.75
2023-10-17T05:23:57.776Z,35.25
2023-10-17T05:29:24.523Z,35.00
2023-10-17T05:34:50.341Z,44.25
2023-10-17T05:40:13.235Z,40.00
2023-10-17T05:45:36.039Z,48.50
2023-10-17T05:50:58.894Z,46.00
2023-10-17T05:56:21.727Z,48.75
2023-10-17T06:01:45.700Z,43.25
2023-10-17T06:07:08.133Z,50.75
2023-10-17T06:12:30.466Z,46.25
2023-10-17T06:17:36.254Z,51.75
2023-10-17T06:22:48.120Z,46.75
2023-10-17T06:28:11.898Z,51.50
2023-10-17T06:33:22.243Z,41.50
2023-10-17T06:38:45.729Z,46.75
2023-10-17T06:43:51.958Z,44.50
2023-10-17T06:49:00.199Z,40.00
2023-10-17T06:54:15.469Z,43.75
2023-10-17T06:59:37.610Z,46.25
2023-10-17T07:04:45.797Z,43.25
2023-10-17T07:09:55.262Z,43.75
2023-10-17T07:14:59.997Z,42.50
2023-10-17T07:20:15.348Z,39.75
2023-10-17T07:25:19.998Z,42.00
2023-10-17T07:30:38.186Z,44.00
2023-10-17T07:35:42.738Z,40.00
2023-10-17T07:41:00.707Z,44.25
2023-10-17T07:46:18.436Z,45.25
2023-10-17T07:51:25.420Z,44.00
2023-10-17T07:56:29.935Z,40.50
2023-10-17T08:01:37.600Z,46.25
2023-10-17T08:06:45.490Z,44.75
2023-10-17T08:12:01.747Z,49.50
2023-10-17T08:17:07.458Z,38.75
2023-10-17T08:22:13.785Z,48.50
2023-10-17T08:27:24.423Z,39.25
2023-10-17T08:32:29.387Z,45.50
2023-10-17T08:37:45.724Z,42.75
2023-10-17T08:42:54.503Z,44.00
2023-10-17T08:48:03.106Z,48.75
2023-10-17T08:53:16.253Z,37.75
2023-10-17T08:58:27.471Z,47.75
2023-10-17T09:03:38.580Z,47.75
2023-10-17T09:08:58.217Z,47.75
2023-10-17T09:14:26.823Z,40.75
2023-10-17T09:19:41.165Z,42.25
2023-10-17T09:24:50.608Z,43.50
2023-10-17T09:30:01.366Z,49.75
2023-10-17T09:35:13.263Z,44.75
2023-10-17T09:40:39.237Z,47.75
2023-10-17T09:45:50.127Z,51.75
2023-10-17T09:50:58.882Z,48.00
2023-10-17T09:56:09.341Z,50.00
2023-10-17T10:01:17.103Z,47.75
2023-10-17T10:06:27.318Z,54.50
2023-10-17T10:11:55.449Z,51.00
2023-10-17T10:17:02.680Z,52.00
2023-10-17T10:22:09.155Z,49.00
2023-10-17T10:27:18.127Z,50.75
2023-10-17T10:32:42.797Z,49.25
2023-10-17T10:37:57.202Z,56.00
2023-10-17T10:43:06.808Z,51.75
2023-10-17T10:48:18.618Z,50.25
2023-10-17T10:53:30.907Z,45.75
2023-10-17T10:58:36.909Z,45.25
2023-10-17T11:03:45.960Z,48.00
2023-10-17T11:08:50.973Z,47.50
2023-10-17T11:14:01.130Z,44.75
2023-10-17T11:19:11.874Z,47.25
2023-10-17T11:24:19.638Z,44.50
2023-10-17T11:29:29.439Z,46.00
2023-10-17T11:34:34.836Z,48.75
2023-10-17T11:39:43.704Z,48.25
2023-10-17T11:44:49.237Z,48.25
2023-10-17T11:49:56.044Z,45.75
2023-10-17T11:55:03.552Z,46.25
2023-10-17T12:00:29.145Z,48.25
2023-10-17T12:05:39.211Z,50.00
2023-10-17T12:10:45.932Z,44.50
2023-10-17T12:15:51.650Z,46.25
2023-10-17T12:21:04.576Z,44.00
2023-10-17T12:26:21.917Z,44.00
2023-10-17T12:31:26.698Z,60.75
2023-10-17T12:36:37.692Z,48.75
2023-10-17T12:41:55.721Z,50.25
2023-10-17T12:47:01.041Z,51.75
2023-10-17T12:52:06.238Z,46.75
2023-10-17T12:57:12.912Z,57.75
2023-10-17T13:02:18.207Z,56.75
2023-10-17T13:07:23.089Z,61.75
2023-10-17T13:12:28.570Z,57.50
2023-10-17T13:17:35.423Z,57.00
2023-10-17T13:22:49.883Z,54.75
2023-10-17T13:27:55.188Z,55.00
2023-10-17T13:33:01.267Z,55.75
2023-10-17T13:38:07.053Z,58.25
2023-10-17T13:43:17.322Z,56.75
2023-10-17T13:48:23.291Z,52.00
2023-10-17T13:53:31.515Z,59.25
2023-10-17T13:58:39.209Z,51.50
2023-10-17T14:03:47.272Z,53.00
2023-10-17T14:08:53.052Z,55.00
2023-10-17T14:13:58.321Z,56.75
2023-10-17T14:19:16.400Z,57.25
2023-10-17T14:24:29.961Z,55.25
2023-10-17T14:29:36.592Z,56.50
2023-10-17T14:34:41.867Z,58.00
2023-10-17T14:39:49.710Z,57.25
2023-10-17T14:44:57.999Z,60.50
2023-10-17T14:50:08.854Z,59.75
2023-10-17T14:55:17.202Z,60.75
2023-10-17T15:00:25.770Z,58.50
2023-10-17T15:05:31.051Z,57.50
2023-10-17T15:10:36.416Z,56.50
2023-10-17T15:15:42.680Z,55.00
2023-10-17T15:20:47.632Z,57.50
2023-10-17T15:26:01.958Z,54.50
2023-10-17T15:31:11.686Z,58.75
2023-10-17T15:36:17.276Z,55.50
2023-10-17T15:41:24.034Z,55.25
2023-10-17T15:46:29.151Z,55.00
2023-10-17T15:51:34.996Z,55.25
2023-10-17T15:56:40.743Z,54.00
2023-10-17T16:01:45.618Z,56.50
2023-10-17T16:06:52.895Z,57.25
2023-10-17T16:11:58.295Z,60.25
2023-10-17T16:17:08.641Z,61.25
2023-10-17T16:22:13.342Z,55.00
2023-10-17T16:27:18.717Z,54.00
2023-10-17T16:32:23.631Z,56.75
2023-10-17T16:37:29.829Z,56.50
2023-10-17T16:42:34.804Z,54.00
2023-10-17T16:47:40.642Z,57.75
2023-10-17T16:52:45.300Z,54.25
2023-10-17T16:57:50.392Z,59.00
2023-10-17T17:02:59.556Z,55.75
2023-10-17T17:08:04.712Z,58.00
2023-10-17T17:13:09.965Z,54.25
2023-10-17T17:18:40.424Z,60.50
2023-10-17T17:23:39.987Z,56.25
2023-10-17T17:28:45.192Z,56.00
2023-10-17T17:33:50.148Z,59.25
2023-10-17T17:38:55.784Z,60.75
2023-10-17T17:44:00.899Z,58.25
2023-10-17T17:49:08.629Z,55.25
2023-10-17T17:54:15.035Z,56.75
2023-10-17T17:59:19.962Z,55.00
2023-10-17T18:04:31.352Z,56.00
2023-10-17T18:09:38.589Z,56.25
2023-10-17T18:14:44.263Z,56.00
2023-10-17T18:19:50.084Z,60.00
2023-10-17T18:24:55.199Z,56.00
2023-10-17T18:30:00.182Z,58.25
2023-10-17T18:35:07.863Z,57.00
2023-10-17T18:40:14.142Z,55.00
2023-10-17T18:45:19.012Z,56.75
2023-10-17T18:50:24.127Z,52.75
2023-10-17T18:55:28.958Z,55.75
2023-10-17T19:00:34.881Z,56.25
2023-10-17T19:05:40.081Z,58.25
2023-10-17T19:10:45.660Z,55.25
2023-10-17T19:15:50.741Z,54.75
2023-10-17T19:20:56.232Z,57.75
2023-10-17T19:26:01.044Z,58.50
2023-10-17T19:31:05.824Z,54.50
2023-10-17T19:36:11.087Z,53.50
2023-10-17T19:41:16.149Z,55.00
2023-10-17T19:46:22.270Z,56.25
2023-10-17T19:51:27.542Z,48.25
2023-10-17T19:56:32.688Z,53.25
2023-10-17T20:01:37.806Z,55.50
2023-10-17T20:06:45.130Z,51.75
2023-10-17T20:11:50.008Z,54.00
2023-10-17T20:16:55.514Z,53.00
2023-10-17T20:22:02.116Z,53.25
2023-10-17T20:27:07.007Z,51.25
2023-10-17T20:32:12.072Z,50.25
2023-10-17T20:37:17.052Z,52.25
2023-10-17T20:42:22.183Z,50.00
2023-10-17T20:47:27.952Z,48.75
2023-10-17T20:52:33.844Z,54.75
2023-10-17T20:57:39.090Z,55.75
2023-10-17T21:02:44.106Z,48.50
2023-10-17T21:07:49.723Z,48.50
2023-10-17T21:12:54.528Z,50.00
2023-10-17T21:17:59.405Z,47.25
2023-10-17T21:23:04.320Z,45.50
2023-10-17T21:28:12.078Z,49.75
2023-10-17T21:33:17.060Z,47.00
2023-10-17T21:38:21.960Z,47.50
2023-10-17T21:43:26.909Z,45.50
2023-10-17T21:48:32.121Z,40.25
2023-10-17T21:53:39.212Z,45.25
2023-10-17T21:58:45.546Z,50.50
2023-10-17T22:03:51.444Z,49.25
2023-10-17T22:09:01.562Z,44.50
2023-10-17T22:14:08.992Z,43.75
2023-10-17T22:19:14.093Z,39.00
2023-10-17T22:24:19.602Z,38.50
2023-10-17T22:29:24.994Z,38.75
2023-10-17T22:34:29.830Z,33.00
2023-10-17T22:39:35.090Z,39.50
2023-10-17T22:44:40.160Z,36.00
2023-10-17T22:49:47.017Z,31.75
2023-10-17T22:54:52.039Z,40.00
2023-10-17T22:59:56.974Z,34.25
2023-10-17T23:05:02.064Z,30.75
2023-10-17T23:10:08.938Z,33.25
2023-10-17T23:15:15.786Z,33.00
2023-10-17T23:20:20.972Z,37.00
2023-10-17T23:25:25.674Z,37.75
2023-10-17T23:30:31.192Z,30.75
2023-10-17T23:35:36.253Z,31.00
2023-10-17T23:40:41.900Z,30.75
2023-10-17T23:45:51.041Z,36.25
2023-10-17T23:50:56.800Z,32.00
2023-10-17T23:56:04.656Z,40.25
